sensor_id;sensor_type;location;lat;lon;timestamp;pressure;altitude;pressure_sealevel;temperature;humidity
59391;BME280;53405;57.012;40.984;2023-04-10T00:00:44;101052.16;;;4.83;67.92
59391;BME280;53405;57.012;40.984;2023-04-10T00:03:12;101009.09;;;4.42;68.08
59391;BME280;53405;57.012;40.984;2023-04-10T00:05:39;101061.09;;;4.67;67.72
59391;BME280;53405;57.012;40.984;2023-04-10T00:08:07;101040.56;;;4.63;67.43
59391;BME280;53405;57.012;40.984;2023-04-10T00:10:34;101055.44;;;4.74;67.59
59391;BME280;53405;57.012;40.984;2023-04-10T00:13:02;101064.22;;;4.48;68.96
59391;BME280;53405;57.012;40.984;2023-04-10T00:15:30;101061.19;;;4.55;68.42
59391;BME280;53405;57.012;40.984;2023-04-10T00:17:58;101047.53;;;4.51;68.33
59391;BME280;53405;57.012;40.984;2023-04-10T00:20:25;101049.22;;;4.63;67.94
59391;BME280;53405;57.012;40.984;2023-04-10T00:22:53;101047.91;;;4.58;68.29
59391;BME280;53405;57.012;40.984;2023-04-10T00:25:20;101035.53;;;4.48;68.61
59391;BME280;53405;57.012;40.984;2023-04-10T00:27:49;101056.47;;;4.71;67.94
59391;BME280;53405;57.012;40.984;2023-04-10T00:30:16;101063.72;;;4.67;68.00
59391;BME280;53405;57.012;40.984;2023-04-10T00:32:46;101054.72;;;4.72;67.82
59391;BME280;53405;57.012;40.984;2023-04-10T00:35:13;101039.53;;;4.65;67.58
59391;BME280;53405;57.012;40.984;2023-04-10T00:37:40;101051.38;;;4.69;68.14
59391;BME280;53405;57.012;40.984;2023-04-10T00:40:08;101053.53;;;4.76;67.51
59391;BME280;53405;57.012;40.984;2023-04-10T00:42:35;101046.31;;;4.79;67.56
59391;BME280;53405;57.012;40.984;2023-04-10T00:45:03;101043.69;;;4.79;67.54
59391;BME280;53405;57.012;40.984;2023-04-10T00:47:31;101010.41;;;4.59;67.63
59391;BME280;53405;57.012;40.984;2023-04-10T00:49:58;101051.41;;;4.81;67.52
59391;BME280;53405;57.012;40.984;2023-04-10T00:52:26;101052.38;;;4.80;67.71
59391;BME280;53405;57.012;40.984;2023-04-10T00:54:54;101051.25;;;4.71;68.01
59391;BME280;53405;57.012;40.984;2023-04-10T00:57:21;101063.00;;;4.65;68.90
59391;BME280;53405;57.012;40.984;2023-04-10T00:59:49;101057.00;;;4.52;69.49
59391;BME280;53405;57.012;40.984;2023-04-10T01:02:18;101027.78;;;4.36;69.49
59391;BME280;53405;57.012;40.984;2023-04-10T01:04:46;101056.28;;;4.50;69.56
59391;BME280;53405;57.012;40.984;2023-04-10T01:13:07;101045.75;;;4.51;68.85
59391;BME280;53405;57.012;40.984;2023-04-10T01:15:43;101054.28;;;4.53;68.96
59391;BME280;53405;57.012;40.984;2023-04-10T01:21:04;101062.22;;;4.52;69.17
59391;BME280;53405;57.012;40.984;2023-04-10T01:29:12;101056.22;;;4.27;69.62
59391;BME280;53405;57.012;40.984;2023-04-10T01:34:23;101052.47;;;4.19;69.73
59391;BME280;53405;57.012;40.984;2023-04-10T01:37:01;101058.28;;;4.22;69.66
59391;BME280;53405;57.012;40.984;2023-04-10T01:39:29;101042.00;;;4.07;70.06
59391;BME280;53405;57.012;40.984;2023-04-10T01:42:00;101065.63;;;4.17;70.46
59391;BME280;53405;57.012;40.984;2023-04-10T01:44:37;101057.19;;;4.13;70.80
59391;BME280;53405;57.012;40.984;2023-04-10T01:47:08;101055.84;;;4.08;70.54
59391;BME280;53405;57.012;40.984;2023-04-10T01:49:37;101036.50;;;3.86;71.69
59391;BME280;53405;57.012;40.984;2023-04-10T01:52:11;101048.19;;;3.93;71.09
59391;BME280;53405;57.012;40.984;2023-04-10T01:54:41;101060.66;;;4.01;71.27
59391;BME280;53405;57.012;40.984;2023-04-10T01:57:15;101034.75;;;3.87;70.99
59391;BME280;53405;57.012;40.984;2023-04-10T01:59:51;101045.69;;;3.92;71.55
59391;BME280;53405;57.012;40.984;2023-04-10T02:02:19;101065.97;;;3.75;71.83
59391;BME280;53405;57.012;40.984;2023-04-10T02:04:47;101063.13;;;3.78;72.14
59391;BME280;53405;57.012;40.984;2023-04-10T02:10:29;101057.00;;;3.67;72.73
59391;BME280;53405;57.012;40.984;2023-04-10T02:13:04;101018.16;;;3.51;72.41
59391;BME280;53405;57.012;40.984;2023-04-10T02:15:33;101058.97;;;3.76;72.44
59391;BME280;53405;57.012;40.984;2023-04-10T02:18:01;101059.06;;;3.74;72.45
59391;BME280;53405;57.012;40.984;2023-04-10T02:20:33;101053.31;;;3.82;72.36
59391;BME280;53405;57.012;40.984;2023-04-10T02:23:01;100999.72;;;3.54;72.38
59391;BME280;53405;57.012;40.984;2023-04-10T02:25:33;101047.50;;;3.78;72.13
59391;BME280;53405;57.012;40.984;2023-04-10T02:28:05;101044.25;;;3.75;71.99
59391;BME280;53405;57.012;40.984;2023-04-10T02:30:33;101047.50;;;3.78;72.25
59391;BME280;53405;57.012;40.984;2023-04-10T02:33:01;101047.28;;;3.82;72.37
59391;BME280;53405;57.012;40.984;2023-04-10T02:35:30;101058.84;;;3.77;72.58
59391;BME280;53405;57.012;40.984;2023-04-10T02:37:57;101048.31;;;3.79;72.53
59391;BME280;53405;57.012;40.984;2023-04-10T02:40:25;101045.13;;;3.75;72.64
59391;BME280;53405;57.012;40.984;2023-04-10T02:43:08;101056.56;;;3.73;72.65
59391;BME280;53405;57.012;40.984;2023-04-10T02:45:36;101051.06;;;3.65;72.70
59391;BME280;53405;57.012;40.984;2023-04-10T02:48:06;101043.69;;;3.58;72.88
59391;BME280;53405;57.012;40.984;2023-04-10T02:50:33;101056.19;;;3.66;72.58
59391;BME280;53405;57.012;40.984;2023-04-10T02:53:01;101032.00;;;3.51;72.73
59391;BME280;53405;57.012;40.984;2023-04-10T02:55:29;101056.78;;;3.70;72.35
59391;BME280;53405;57.012;40.984;2023-04-10T02:57:56;101060.44;;;3.67;72.14
59391;BME280;53405;57.012;40.984;2023-04-10T03:00:24;101062.31;;;3.65;72.08
59391;BME280;53405;57.012;40.984;2023-04-10T03:03:13;101040.69;;;3.52;72.25
59391;BME280;53405;57.012;40.984;2023-04-10T03:05:45;101047.09;;;3.59;72.16
59391;BME280;53405;57.012;40.984;2023-04-10T03:08:18;101057.09;;;3.65;72.56
59391;BME280;53405;57.012;40.984;2023-04-10T03:10:46;101048.47;;;3.65;72.07
59391;BME280;53405;57.012;40.984;2023-04-10T03:13:17;101058.59;;;3.56;72.32
59391;BME280;53405;57.012;40.984;2023-04-10T03:15:45;101057.00;;;3.67;71.36
59391;BME280;53405;57.012;40.984;2023-04-10T03:18:13;101068.47;;;3.51;72.01
59391;BME280;53405;57.012;40.984;2023-04-10T03:20:43;101049.00;;;3.44;71.59
59391;BME280;53405;57.012;40.984;2023-04-10T03:23:11;101032.16;;;3.11;72.44
59391;BME280;53405;57.012;40.984;2023-04-10T03:25:38;101060.28;;;3.32;72.57
59391;BME280;53405;57.012;40.984;2023-04-10T03:28:07;101050.69;;;3.32;72.18
59391;BME280;53405;57.012;40.984;2023-04-10T03:30:35;101060.97;;;3.47;71.39
59391;BME280;53405;57.012;40.984;2023-04-10T03:33:03;101070.25;;;3.51;71.69
59391;BME280;53405;57.012;40.984;2023-04-10T03:35:30;101069.00;;;3.56;71.07
59391;BME280;53405;57.012;40.984;2023-04-10T03:37:59;101071.28;;;3.48;70.50
59391;BME280;53405;57.012;40.984;2023-04-10T03:40:26;101071.19;;;3.50;70.47
59391;BME280;53405;57.012;40.984;2023-04-10T03:42:54;101074.97;;;3.46;70.99
59391;BME280;53405;57.012;40.984;2023-04-10T03:45:22;101077.44;;;3.60;70.72
59391;BME280;53405;57.012;40.984;2023-04-10T03:47:49;101080.94;;;3.72;70.44
59391;BME280;53405;57.012;40.984;2023-04-10T03:50:17;101090.31;;;3.87;70.29
59391;BME280;53405;57.012;40.984;2023-04-10T03:52:51;101088.53;;;4.01;69.34
59391;BME280;53405;57.012;40.984;2023-04-10T03:55:21;101088.09;;;4.07;69.49
59391;BME280;53405;57.012;40.984;2023-04-10T03:57:50;101081.88;;;4.21;68.03
59391;BME280;53405;57.012;40.984;2023-04-10T04:00:23;101086.09;;;4.34;69.23
59391;BME280;53405;57.012;40.984;2023-04-10T04:03:00;101082.38;;;4.50;67.81
59391;BME280;53405;57.012;40.984;2023-04-10T04:05:47;101083.47;;;4.59;67.15
59391;BME280;53405;57.012;40.984;2023-04-10T04:08:37;101084.47;;;4.69;64.54
59391;BME280;53405;57.012;40.984;2023-04-10T04:11:23;101084.28;;;4.83;63.49
59391;BME280;53405;57.012;40.984;2023-04-10T04:13:56;101078.88;;;4.98;63.21
59391;BME280;53405;57.012;40.984;2023-04-10T04:16:43;101085.66;;;5.12;61.88
59391;BME280;53405;57.012;40.984;2023-04-10T04:19:23;101084.09;;;5.09;61.77
59391;BME280;53405;57.012;40.984;2023-04-10T04:22:17;101087.25;;;5.25;61.85
59391;BME280;53405;57.012;40.984;2023-04-10T04:25:03;101075.59;;;5.30;60.88
59391;BME280;53405;57.012;40.984;2023-04-10T04:27:53;101071.22;;;5.30;60.03
59391;BME280;53405;57.012;40.984;2023-04-10T04:30:43;101048.78;;;5.28;58.98
59391;BME280;53405;57.012;40.984;2023-04-10T04:33:15;101077.78;;;5.58;59.76
59391;BME280;53405;57.012;40.984;2023-04-10T04:35:55;101080.25;;;5.71;59.59
59391;BME280;53405;57.012;40.984;2023-04-10T04:38:46;101074.78;;;5.86;59.61
59391;BME280;53405;57.012;40.984;2023-04-10T04:41:30;101079.03;;;6.09;57.35
59391;BME280;53405;57.012;40.984;2023-04-10T04:44:30;101086.63;;;6.24;55.81
59391;BME280;53405;57.012;40.984;2023-04-10T04:46:58;101081.03;;;6.28;57.18
59391;BME280;53405;57.012;40.984;2023-04-10T04:49:45;101087.44;;;6.36;56.02
59391;BME280;53405;57.012;40.984;2023-04-10T04:52:38;101082.53;;;6.42;55.65
59391;BME280;53405;57.012;40.984;2023-04-10T04:55:30;101080.94;;;6.51;53.33
59391;BME280;53405;57.012;40.984;2023-04-10T04:58:03;101059.59;;;6.35;52.99
59391;BME280;53405;57.012;40.984;2023-04-10T05:00:58;101071.81;;;6.45;52.66
59391;BME280;53405;57.012;40.984;2023-04-10T05:03:44;101085.31;;;6.62;53.75
59391;BME280;53405;57.012;40.984;2023-04-10T05:06:40;101074.88;;;6.83;54.05
59391;BME280;53405;57.012;40.984;2023-04-10T05:09:31;101094.88;;;7.05;54.95
59391;BME280;53405;57.012;40.984;2023-04-10T05:12:19;101082.66;;;7.15;54.44
59391;BME280;53405;57.012;40.984;2023-04-10T05:14:46;101077.84;;;7.20;53.27
59391;BME280;53405;57.012;40.984;2023-04-10T05:17:40;101060.00;;;7.35;54.50
59391;BME280;53405;57.012;40.984;2023-04-10T05:20:28;101088.28;;;7.72;52.70
59391;BME280;53405;57.012;40.984;2023-04-10T05:23:15;101061.13;;;7.73;52.64
59391;BME280;53405;57.012;40.984;2023-04-10T05:26:01;101086.19;;;8.07;51.70
59391;BME280;53405;57.012;40.984;2023-04-10T05:28:47;101093.25;;;8.16;45.32
59391;BME280;53405;57.012;40.984;2023-04-10T05:31:28;101091.91;;;8.31;48.30
59391;BME280;53405;57.012;40.984;2023-04-10T05:34:07;101087.81;;;8.48;49.36
59391;BME280;53405;57.012;40.984;2023-04-10T05:36:45;101064.47;;;8.45;42.67
59391;BME280;53405;57.012;40.984;2023-04-10T05:39:36;101090.31;;;8.60;41.67
59391;BME280;53405;57.012;40.984;2023-04-10T05:42:21;101071.94;;;8.60;41.78
59391;BME280;53405;57.012;40.984;2023-04-10T05:44:56;101078.56;;;8.74;40.80
59391;BME280;53405;57.012;40.984;2023-04-10T05:47:34;101094.28;;;9.03;41.03
59391;BME280;53405;57.012;40.984;2023-04-10T05:50:24;101091.63;;;9.13;38.84
59391;BME280;53405;57.012;40.984;2023-04-10T05:53:19;101091.72;;;9.31;37.46
59391;BME280;53405;57.012;40.984;2023-04-10T05:56:03;101095.28;;;9.39;37.39
59391;BME280;53405;57.012;40.984;2023-04-10T05:58:57;101070.13;;;9.37;37.17
59391;BME280;53405;57.012;40.984;2023-04-10T06:01:41;101098.53;;;9.61;36.92
59391;BME280;53405;57.012;40.984;2023-04-10T06:04:08;101083.28;;;9.65;36.97
59391;BME280;53405;57.012;40.984;2023-04-10T06:06:38;101082.97;;;9.77;37.67
59391;BME280;53405;57.012;40.984;2023-04-10T06:09:05;101092.72;;;9.95;38.81
59391;BME280;53405;57.012;40.984;2023-04-10T06:11:33;101092.06;;;10.11;37.62
59391;BME280;53405;57.012;40.984;2023-04-10T06:14:00;101094.78;;;10.19;38.35
59391;BME280;53405;57.012;40.984;2023-04-10T06:16:35;101098.03;;;10.31;37.26
59391;BME280;53405;57.012;40.984;2023-04-10T06:19:02;101102.13;;;10.43;36.69
59391;BME280;53405;57.012;40.984;2023-04-10T06:21:30;101098.44;;;10.54;35.29
59391;BME280;53405;57.012;40.984;2023-04-10T06:23:57;101100.56;;;10.51;34.26
59391;BME280;53405;57.012;40.984;2023-04-10T06:26:25;101093.47;;;10.51;33.30
59391;BME280;53405;57.012;40.984;2023-04-10T06:28:53;101096.41;;;10.48;32.69
59391;BME280;53405;57.012;40.984;2023-04-10T06:31:20;101091.22;;;10.56;34.61
59391;BME280;53405;57.012;40.984;2023-04-10T06:33:49;101101.91;;;10.73;32.89
59391;BME280;53405;57.012;40.984;2023-04-10T06:36:19;101084.59;;;10.88;32.90
59391;BME280;53405;57.012;40.984;2023-04-10T06:38:59;101102.94;;;10.98;31.59
59391;BME280;53405;57.012;40.984;2023-04-10T06:41:29;101101.16;;;11.07;31.28
59391;BME280;53405;57.012;40.984;2023-04-10T06:44:05;101086.16;;;10.99;30.84
59391;BME280;53405;57.012;40.984;2023-04-10T06:50:39;101104.75;;;11.50;30.25
59391;BME280;53405;57.012;40.984;2023-04-10T06:53:07;101097.53;;;11.60;29.47
59391;BME280;53405;57.012;40.984;2023-04-10T06:55:34;101096.75;;;11.68;28.64
59391;BME280;53405;57.012;40.984;2023-04-10T06:58:04;101105.00;;;11.73;28.50
59391;BME280;53405;57.012;40.984;2023-04-10T07:00:32;101108.19;;;11.77;27.02
59391;BME280;53405;57.012;40.984;2023-04-10T07:02:59;101102.59;;;11.80;26.88
59391;BME280;53405;57.012;40.984;2023-04-10T07:05:27;101107.78;;;11.98;28.47
59391;BME280;53405;57.012;40.984;2023-04-10T07:07:54;101075.56;;;11.86;27.33
59391;BME280;53405;57.012;40.984;2023-04-10T07:10:21;101101.88;;;12.04;26.71
59391;BME280;53405;57.012;40.984;2023-04-10T07:12:49;101090.34;;;12.13;27.02
59391;BME280;53405;57.012;40.984;2023-04-10T07:15:16;101100.94;;;12.21;26.43
59391;BME280;53405;57.012;40.984;2023-04-10T07:17:44;101097.78;;;12.18;26.18
59391;BME280;53405;57.012;40.984;2023-04-10T07:20:12;101097.63;;;12.27;26.58
59391;BME280;53405;57.012;40.984;2023-04-10T07:22:39;101089.75;;;12.44;27.74
59391;BME280;53405;57.012;40.984;2023-04-10T07:25:07;101073.06;;;12.27;25.98
59391;BME280;53405;57.012;40.984;2023-04-10T07:27:35;101084.94;;;12.31;26.47
59391;BME280;53405;57.012;40.984;2023-04-10T07:30:03;101082.94;;;12.25;26.43
59391;BME280;53405;57.012;40.984;2023-04-10T07:32:30;101100.97;;;12.38;26.82
59391;BME280;53405;57.012;40.984;2023-04-10T07:35:00;101093.72;;;12.48;26.34
59391;BME280;53405;57.012;40.984;2023-04-10T07:37:29;101098.19;;;12.47;26.74
59391;BME280;53405;57.012;40.984;2023-04-10T07:39:56;101089.59;;;12.62;27.84
59391;BME280;53405;57.012;40.984;2023-04-10T07:42:23;101088.78;;;12.70;27.73
59391;BME280;53405;57.012;40.984;2023-04-10T07:44:51;101081.03;;;12.60;27.27
59391;BME280;53405;57.012;40.984;2023-04-10T07:47:18;101079.84;;;12.87;27.39
59391;BME280;53405;57.012;40.984;2023-04-10T07:49:45;101079.69;;;12.89;27.78
59391;BME280;53405;57.012;40.984;2023-04-10T07:52:13;101078.66;;;13.06;27.59
59391;BME280;53405;57.012;40.984;2023-04-10T07:54:41;101075.03;;;13.15;27.89
59391;BME280;53405;57.012;40.984;2023-04-10T07:57:08;101068.06;;;13.23;27.41
59391;BME280;53405;57.012;40.984;2023-04-10T07:59:35;101070.19;;;13.44;27.21
59391;BME280;53405;57.012;40.984;2023-04-10T08:02:03;101074.94;;;13.57;27.74
59391;BME280;53405;57.012;40.984;2023-04-10T08:04:30;101071.56;;;13.71;27.37
59391;BME280;53405;57.012;40.984;2023-04-10T08:06:58;101065.88;;;13.82;28.83
59391;BME280;53405;57.012;40.984;2023-04-10T08:09:25;101067.91;;;14.12;27.17
59391;BME280;53405;57.012;40.984;2023-04-10T08:11:52;101071.38;;;14.35;27.88
59391;BME280;53405;57.012;40.984;2023-04-10T08:14:20;101060.97;;;14.57;26.55
59391;BME280;53405;57.012;40.984;2023-04-10T08:16:47;101070.50;;;14.66;27.29
59391;BME280;53405;57.012;40.984;2023-04-10T08:19:14;101064.81;;;14.92;25.44
59391;BME280;53405;57.012;40.984;2023-04-10T08:21:42;101068.94;;;14.95;26.47
59391;BME280;53405;57.012;40.984;2023-04-10T08:24:09;101069.53;;;15.20;25.76
59391;BME280;53405;57.012;40.984;2023-04-10T08:26:36;101068.59;;;15.43;25.86
59391;BME280;53405;57.012;40.984;2023-04-10T08:29:05;101072.44;;;15.85;25.28
59391;BME280;53405;57.012;40.984;2023-04-10T08:31:32;101045.19;;;15.98;25.02
59391;BME280;53405;57.012;40.984;2023-04-10T08:34:00;101063.91;;;16.48;24.97
59391;BME280;53405;57.012;40.984;2023-04-10T08:36:27;101078.00;;;16.70;25.70
59391;BME280;53405;57.012;40.984;2023-04-10T08:38:55;101073.88;;;16.67;25.99
59391;BME280;53405;57.012;40.984;2023-04-10T08:41:22;101058.72;;;16.68;26.05
59391;BME280;53405;57.012;40.984;2023-04-10T08:43:51;101063.69;;;16.99;25.73
59391;BME280;53405;57.012;40.984;2023-04-10T08:46:18;101058.88;;;17.09;25.50
59391;BME280;53405;57.012;40.984;2023-04-10T08:48:52;101049.13;;;17.23;24.52
59391;BME280;53405;57.012;40.984;2023-04-10T08:51:25;101064.63;;;17.13;24.68
59391;BME280;53405;57.012;40.984;2023-04-10T08:53:59;100987.00;;;16.74;23.82
59391;BME280;53405;57.012;40.984;2023-04-10T08:56:32;101057.69;;;17.54;23.36
59391;BME280;53405;57.012;40.984;2023-04-10T08:59:01;101021.16;;;16.77;24.44
59391;BME280;53405;57.012;40.984;2023-04-10T09:01:29;101064.25;;;17.23;24.88
59391;BME280;53405;57.012;40.984;2023-04-10T09:03:57;101047.34;;;17.02;23.69
59391;BME280;53405;57.012;40.984;2023-04-10T09:06:25;101058.72;;;17.18;23.88
59391;BME280;53405;57.012;40.984;2023-04-10T09:08:53;101056.22;;;17.51;22.47
59391;BME280;53405;57.012;40.984;2023-04-10T09:11:20;101056.69;;;16.91;24.23
59391;BME280;53405;57.012;40.984;2023-04-10T09:13:49;101057.47;;;17.55;23.34
59391;BME280;53405;57.012;40.984;2023-04-10T09:16:27;101040.84;;;17.46;22.42
59391;BME280;53405;57.012;40.984;2023-04-10T09:18:54;101044.47;;;16.97;22.26
59391;BME280;53405;57.012;40.984;2023-04-10T09:21:22;101022.03;;;17.13;24.03
59391;BME280;53405;57.012;40.984;2023-04-10T09:23:59;101051.41;;;17.81;22.12
59391;BME280;53405;57.012;40.984;2023-04-10T09:26:31;101042.72;;;18.14;22.10
59391;BME280;53405;57.012;40.984;2023-04-10T09:29:05;101046.69;;;18.65;21.76
59391;BME280;53405;57.012;40.984;2023-04-10T09:31:34;101045.38;;;19.21;21.17
59391;BME280;53405;57.012;40.984;2023-04-10T09:34:18;101045.34;;;19.41;21.11
59391;BME280;53405;57.012;40.984;2023-04-10T09:36:59;101053.34;;;19.41;20.99
59391;BME280;53405;57.012;40.984;2023-04-10T09:39:37;101043.22;;;19.50;22.23
59391;BME280;53405;57.012;40.984;2023-04-10T09:42:09;101051.31;;;19.23;20.03
59391;BME280;53405;57.012;40.984;2023-04-10T09:44:39;101017.13;;;19.00;20.66
59391;BME280;53405;57.012;40.984;2023-04-10T09:49:47;101039.91;;;18.96;21.39
59391;BME280;53405;57.012;40.984;2023-04-10T09:54:46;101005.31;;;19.28;19.75
59391;BME280;53405;57.012;40.984;2023-04-10T09:57:16;101030.47;;;19.59;19.80
59391;BME280;53405;57.012;40.984;2023-04-10T09:59:51;101043.16;;;18.98;21.56
59391;BME280;53405;57.012;40.984;2023-04-10T10:02:23;101034.25;;;19.38;20.57
59391;BME280;53405;57.012;40.984;2023-04-10T10:04:51;101040.66;;;19.75;19.84
59391;BME280;53405;57.012;40.984;2023-04-10T10:07:20;101035.28;;;19.89;21.38
59391;BME280;53405;57.012;40.984;2023-04-10T10:09:50;101043.94;;;19.84;20.10
59391;BME280;53405;57.012;40.984;2023-04-10T10:12:23;101027.94;;;19.25;20.99
59391;BME280;53405;57.012;40.984;2023-04-10T10:20:50;101035.81;;;18.67;22.06
59391;BME280;53405;57.012;40.984;2023-04-10T10:23:20;101033.59;;;19.49;20.86
59391;BME280;53405;57.012;40.984;2023-04-10T10:25:49;101031.31;;;19.53;20.01
59391;BME280;53405;57.012;40.984;2023-04-10T10:28:17;101023.59;;;19.24;21.45
59391;BME280;53405;57.012;40.984;2023-04-10T10:30:46;101015.53;;;19.44;21.47
59391;BME280;53405;57.012;40.984;2023-04-10T10:33:13;101034.59;;;20.00;20.30
59391;BME280;53405;57.012;40.984;2023-04-10T10:35:41;101026.00;;;19.91;21.34
59391;BME280;53405;57.012;40.984;2023-04-10T10:38:09;101017.34;;;19.96;20.06
59391;BME280;53405;57.012;40.984;2023-04-10T10:41:29;101020.47;;;20.18;19.35
59391;BME280;53405;57.012;40.984;2023-04-10T10:43:54;101009.63;;;20.88;18.72
59391;BME280;53405;57.012;40.984;2023-04-10T10:46:34;101019.81;;;19.97;19.94
59391;BME280;53405;57.012;40.984;2023-04-10T10:49:04;101014.00;;;20.83;19.38
59391;BME280;53405;57.012;40.984;2023-04-10T10:51:50;101011.94;;;20.60;18.71
59391;BME280;53405;57.012;40.984;2023-04-10T10:54:34;101011.38;;;18.36;20.04
59391;BME280;53405;57.012;40.984;2023-04-10T10:58:07;101014.31;;;17.73;21.12
59391;BME280;53405;57.012;40.984;2023-04-10T11:00:16;101012.78;;;18.05;20.93
59391;BME280;53405;57.012;40.984;2023-04-10T11:02:44;101007.88;;;18.16;20.87
59391;BME280;53405;57.012;40.984;2023-04-10T11:05:50;100997.81;;;18.91;22.19
59391;BME280;53405;57.012;40.984;2023-04-10T11:08:36;101007.22;;;19.07;20.07
59391;BME280;53405;57.012;40.984;2023-04-10T11:11:24;101005.63;;;18.59;21.97
59391;BME280;53405;57.012;40.984;2023-04-10T11:16:41;100991.53;;;19.38;19.35
59391;BME280;53405;57.012;40.984;2023-04-10T11:19:10;100984.31;;;18.53;20.49
59391;BME280;53405;57.012;40.984;2023-04-10T11:22:04;100976.81;;;17.68;21.17
59391;BME280;53405;57.012;40.984;2023-04-10T11:24:57;100977.41;;;17.63;21.02
59391;BME280;53405;57.012;40.984;2023-04-10T11:27:46;100987.34;;;18.03;20.85
59391;BME280;53405;57.012;40.984;2023-04-10T11:30:34;100972.19;;;18.50;20.14
59391;BME280;53405;57.012;40.984;2023-04-10T11:33:03;100976.94;;;18.41;20.57
59391;BME280;53405;57.012;40.984;2023-04-10T11:35:32;100947.19;;;18.11;20.86
59391;BME280;53405;57.012;40.984;2023-04-10T11:38:13;100984.47;;;19.50;21.49
59391;BME280;53405;57.012;40.984;2023-04-10T11:41:01;100977.69;;;20.43;19.80
59391;BME280;53405;57.012;40.984;2023-04-10T11:43:31;100979.91;;;21.15;19.39
59391;BME280;53405;57.012;40.984;2023-04-10T11:46:05;100976.97;;;21.35;18.63
59391;BME280;53405;57.012;40.984;2023-04-10T11:48:33;100968.75;;;21.67;18.41
59391;BME280;53405;57.012;40.984;2023-04-10T11:51:09;100955.69;;;21.59;18.77
59391;BME280;53405;57.012;40.984;2023-04-10T11:53:38;100981.16;;;22.34;18.36
59391;BME280;53405;57.012;40.984;2023-04-10T11:56:14;100970.16;;;22.24;16.82
59391;BME280;53405;57.012;40.984;2023-04-10T11:58:42;100973.19;;;22.15;17.24
59391;BME280;53405;57.012;40.984;2023-04-10T12:01:10;100966.97;;;21.61;18.98
59391;BME280;53405;57.012;40.984;2023-04-10T12:03:41;100960.81;;;21.42;17.33
59391;BME280;53405;57.012;40.984;2023-04-10T12:06:12;100955.38;;;20.81;18.43
59391;BME280;53405;57.012;40.984;2023-04-10T12:08:42;100933.91;;;21.18;19.60
59391;BME280;53405;57.012;40.984;2023-04-10T12:11:17;100953.03;;;21.71;18.57
59391;BME280;53405;57.012;40.984;2023-04-10T12:13:47;100959.47;;;21.81;18.82
59391;BME280;53405;57.012;40.984;2023-04-10T12:16:15;100956.03;;;21.44;18.30
59391;BME280;53405;57.012;40.984;2023-04-10T12:19:07;100952.09;;;21.46;18.72
59391;BME280;53405;57.012;40.984;2023-04-10T12:21:35;100920.41;;;20.76;18.26
59391;BME280;53405;57.012;40.984;2023-04-10T12:24:04;100933.78;;;20.32;18.45
59391;BME280;53405;57.012;40.984;2023-04-10T12:26:31;100926.66;;;20.26;18.62
59391;BME280;53405;57.012;40.984;2023-04-10T12:28:58;100937.34;;;20.26;18.68
59391;BME280;53405;57.012;40.984;2023-04-10T12:31:29;100919.16;;;19.84;18.70
59391;BME280;53405;57.012;40.984;2023-04-10T12:33:58;100927.94;;;19.92;20.33
59391;BME280;53405;57.012;40.984;2023-04-10T12:36:29;100925.31;;;20.79;18.57
59391;BME280;53405;57.012;40.984;2023-04-10T12:39:00;100938.06;;;21.51;19.01
59391;BME280;53405;57.012;40.984;2023-04-10T12:41:31;100930.00;;;21.51;17.21
59391;BME280;53405;57.012;40.984;2023-04-10T12:44:07;100891.59;;;20.34;18.70
59391;BME280;53405;57.012;40.984;2023-04-10T12:46:35;100930.84;;;20.59;18.45
59391;BME280;53405;57.012;40.984;2023-04-10T12:49:16;100920.25;;;20.27;18.37
59391;BME280;53405;57.012;40.984;2023-04-10T12:51:46;100923.00;;;20.64;18.63
59391;BME280;53405;57.012;40.984;2023-04-10T12:54:34;100920.75;;;20.61;18.98
59391;BME280;53405;57.012;40.984;2023-04-10T12:57:02;100906.34;;;20.81;18.22
59391;BME280;53405;57.012;40.984;2023-04-10T12:59:32;100905.72;;;20.60;19.22
59391;BME280;53405;57.012;40.984;2023-04-10T13:01:59;100906.75;;;20.40;19.15
59391;BME280;53405;57.012;40.984;2023-04-10T13:04:28;100912.28;;;19.95;19.42
59391;BME280;53405;57.012;40.984;2023-04-10T13:06:57;100910.69;;;19.88;20.37
59391;BME280;53405;57.012;40.984;2023-04-10T13:09:25;100913.06;;;19.77;20.70
59391;BME280;53405;57.012;40.984;2023-04-10T13:11:52;100914.03;;;19.83;20.36
59391;BME280;53405;57.012;40.984;2023-04-10T13:14:20;100909.91;;;20.12;20.08
59391;BME280;53405;57.012;40.984;2023-04-10T13:16:47;100914.91;;;20.02;20.42
59391;BME280;53405;57.012;40.984;2023-04-10T13:19:15;100915.34;;;19.67;18.97
59391;BME280;53405;57.012;40.984;2023-04-10T13:21:42;100906.34;;;18.57;20.07
59391;BME280;53405;57.012;40.984;2023-04-10T13:24:10;100890.75;;;18.54;21.71
59391;BME280;53405;57.012;40.984;2023-04-10T13:26:37;100910.38;;;18.80;19.93
59391;BME280;53405;57.012;40.984;2023-04-10T13:29:05;100902.91;;;18.37;21.32
59391;BME280;53405;57.012;40.984;2023-04-10T13:31:32;100892.22;;;18.37;21.49
59391;BME280;53405;57.012;40.984;2023-04-10T13:33:59;100900.19;;;18.50;21.12
59391;BME280;53405;57.012;40.984;2023-04-10T13:36:27;100894.22;;;18.62;20.08
59391;BME280;53405;57.012;40.984;2023-04-10T13:38:55;100892.78;;;18.66;20.59
59391;BME280;53405;57.012;40.984;2023-04-10T13:41:22;100890.63;;;19.01;21.18
59391;BME280;53405;57.012;40.984;2023-04-10T13:43:49;100906.84;;;19.00;20.51
59391;BME280;53405;57.012;40.984;2023-04-10T13:46:17;100898.50;;;18.69;20.11
59391;BME280;53405;57.012;40.984;2023-04-10T13:48:44;100869.47;;;18.28;20.35
59391;BME280;53405;57.012;40.984;2023-04-10T13:51:12;100898.81;;;17.94;20.06